createdAt,value
2019-04-30T00:00:01.810Z,4
2019-04-30T00:05:01.478Z,4
2019-04-30T00:10:02.345Z,4
2019-04-30T00:15:01.630Z,4
2019-04-30T00:20:02.082Z,4
2019-04-30T00:25:01.453Z,3
2019-04-30T00:30:07.283Z,3
2019-04-30T00:35:02.165Z,4
2019-04-30T00:40:01.966Z,4
2019-04-30T00:45:06.765Z,2
2019-04-30T00:50:01.894Z,5
2019-04-30T00:55:05.547Z,4
2019-04-30T01:00:02.289Z,4
2019-04-30T01:05:05.320Z,4
2019-04-30T01:10:01.787Z,5
2019-04-30T01:15:06.297Z,5
2019-04-30T01:20:01.749Z,5
2019-04-30T01:25:09.098Z,5
2019-04-30T01:30:01.642Z,6
2019-04-30T01:35:01.993Z,6
2019-04-30T01:40:03.101Z,5
2019-04-30T01:45:01.740Z,7
2019-04-30T01:50:04.837Z,6
2019-04-30T01:55:01.507Z,6
2019-04-30T02:00:01.827Z,7
2019-04-30T02:05:01.464Z,7
2019-04-30T02:10:02.261Z,8
2019-04-30T02:15:01.550Z,7
2019-04-30T02:20:02.007Z,9
2019-04-30T02:25:01.358Z,8
2019-04-30T02:30:02.616Z,5
2019-04-30T02:35:02.296Z,8
2019-04-30T02:40:02.093Z,8
2019-04-30T02:45:03.874Z,9
2019-04-30T02:50:14.147Z,9
2019-04-30T02:55:01.689Z,9
2019-04-30T03:00:02.056Z,9
2019-04-30T03:05:01.726Z,10
2019-04-30T03:10:01.602Z,9
2019-04-30T03:15:02.207Z,10
2019-04-30T03:20:03.479Z,10
2019-04-30T03:25:02.071Z,9
2019-04-30T03:30:01.441Z,11
2019-04-30T03:35:03.456Z,9
2019-04-30T03:40:01.585Z,11
2019-04-30T03:45:02.043Z,10
2019-04-30T03:50:01.424Z,7
2019-04-30T03:55:02.891Z,10
2019-04-30T04:00:01.506Z,12
2019-04-30T04:05:02.222Z,10
2019-04-30T04:10:02.064Z,11
2019-04-30T04:15:04.009Z,13
2019-04-30T04:20:01.773Z,13
2019-04-30T04:25:02.161Z,11
2019-04-30T04:30:01.557Z,14
2019-04-30T04:35:01.957Z,14
2019-04-30T04:40:02.552Z,8
2019-04-30T04:45:01.887Z,14
2019-04-30T04:50:02.301Z,13
2019-04-30T04:55:01.648Z,14
2019-04-30T05:00:07.123Z,15
2019-04-30T05:05:01.972Z,15
2019-04-30T05:10:01.715Z,14
2019-04-30T05:15:01.908Z,15
2019-04-30T05:20:01.382Z,12
2019-04-30T05:25:01.727Z,13
2019-04-30T05:30:02.132Z,11
2019-04-30T05:35:01.476Z,15
2019-04-30T05:40:02.275Z,14
2019-04-30T05:45:01.619Z,13
2019-04-30T05:50:01.998Z,13
2019-04-30T05:55:01.338Z,14
2019-04-30T06:00:01.644Z,14
2019-04-30T06:05:02.311Z,8
2019-04-30T06:10:02.118Z,13
2019-04-30T06:15:02.095Z,15
2019-04-30T06:20:01.586Z,14
2019-04-30T06:25:01.971Z,16
2019-04-30T06:30:01.286Z,11
2019-04-30T06:35:01.649Z,8
2019-04-30T06:40:01.399Z,9
2019-04-30T06:45:01.791Z,8
2019-04-30T06:50:02.137Z,9
2019-04-30T06:55:01.468Z,8
2019-04-30T07:00:01.842Z,8
2019-04-30T07:05:01.542Z,11
2019-04-30T07:10:01.369Z,10
2019-04-30T07:15:01.955Z,12
2019-04-30T07:20:01.401Z,12
2019-04-30T07:25:01.754Z,9
2019-04-30T07:30:02.136Z,7
2019-04-30T07:35:01.447Z,5
2019-04-30T07:40:02.265Z,6
2019-04-30T07:45:01.618Z,6
2019-04-30T07:50:01.994Z,7
2019-04-30T07:55:01.414Z,7
2019-04-30T08:00:01.726Z,8
2019-04-30T08:05:01.345Z,8
2019-04-30T08:10:02.119Z,8
2019-04-30T08:15:01.914Z,9
2019-04-30T08:20:01.325Z,10
2019-04-30T08:25:01.703Z,9
2019-04-30T08:30:02.063Z,10
2019-04-30T08:35:01.403Z,10
2019-04-30T08:40:03.539Z,11
2019-04-30T08:45:01.986Z,10
2019-04-30T08:50:02.707Z,10
2019-04-30T08:55:13.271Z,12
2019-04-30T09:00:01.622Z,11
2019-04-30T09:05:02.285Z,11
2019-04-30T09:10:04.663Z,12
2019-04-30T09:15:01.758Z,12
2019-04-30T09:20:02.211Z,12
2019-04-30T09:25:01.537Z,13
2019-04-30T09:30:01.886Z,12
2019-04-30T09:35:02.228Z,12
2019-04-30T09:40:01.994Z,14
2019-04-30T09:45:01.332Z,14
2019-04-30T09:50:01.718Z,16
2019-04-30T09:55:02.497Z,17
2019-04-30T10:00:02.118Z,17
2019-04-30T10:05:02.371Z,16
2019-04-30T10:10:01.517Z,16
2019-04-30T10:15:02.026Z,14
2019-04-30T10:20:01.843Z,14
2019-04-30T10:25:02.251Z,14
2019-04-30T10:30:01.616Z,13
2019-04-30T10:35:01.974Z,13
2019-04-30T10:40:01.730Z,12
2019-04-30T10:45:02.124Z,11
2019-04-30T10:50:01.471Z,14
2019-04-30T10:55:04.432Z,13
2019-04-30T11:00:02.005Z,19
2019-04-30T11:05:01.650Z,25
2019-04-30T11:10:01.452Z,28
2019-04-30T11:15:02.091Z,37
2019-04-30T11:20:01.698Z,42
2019-04-30T11:25:02.881Z,43
2019-04-30T11:30:04.110Z,48
2019-04-30T11:35:01.733Z,49
2019-04-30T11:40:01.552Z,49
2019-04-30T11:45:01.895Z,49
2019-04-30T11:50:02.245Z,53
2019-04-30T11:55:01.570Z,49
2019-04-30T12:00:01.889Z,49
2019-04-30T12:05:01.528Z,48
2019-04-30T12:10:02.322Z,43
2019-04-30T12:15:02.819Z,39
2019-04-30T12:20:01.380Z,40
2019-04-30T12:25:04.979Z,40
2019-04-30T12:30:01.923Z,41
2019-04-30T12:35:02.344Z,37
2019-04-30T12:40:02.163Z,35
2019-04-30T12:45:01.500Z,38
2019-04-30T12:50:01.870Z,33
2019-04-30T12:55:14.743Z,36
2019-04-30T13:00:01.756Z,32
2019-04-30T13:05:01.405Z,31
2019-04-30T13:10:02.989Z,31
2019-04-30T13:15:01.449Z,32
2019-04-30T13:20:01.905Z,29
2019-04-30T13:25:02.301Z,31
2019-04-30T13:30:01.686Z,31
2019-04-30T13:35:02.073Z,27
2019-04-30T13:40:01.987Z,26
2019-04-30T13:45:01.346Z,30
2019-04-30T13:50:01.723Z,27
2019-04-30T13:55:02.098Z,27
2019-04-30T14:00:01.447Z,27
2019-04-30T14:05:02.093Z,29
2019-04-30T14:10:01.911Z,31
2019-04-30T14:15:02.057Z,32
2019-04-30T14:20:01.539Z,33
2019-04-30T14:25:01.946Z,36
2019-04-30T14:30:02.329Z,34
2019-04-30T14:35:01.655Z,33
2019-04-30T14:40:01.813Z,32
2019-04-30T14:45:02.200Z,30
2019-04-30T14:50:04.878Z,28
2019-04-30T14:55:01.701Z,28
2019-04-30T15:00:02.239Z,23
2019-04-30T15:05:01.947Z,25
2019-04-30T15:10:01.756Z,21
2019-04-30T15:15:01.839Z,20
2019-04-30T15:20:02.292Z,19
2019-04-30T15:25:01.679Z,16
2019-04-30T15:30:02.062Z,18
2019-04-30T15:35:01.427Z,15
2019-04-30T15:40:02.227Z,16
2019-04-30T15:45:01.615Z,15
2019-04-30T15:50:02.285Z,12
2019-04-30T15:55:01.761Z,13
2019-04-30T16:00:02.111Z,12
2019-04-30T16:05:01.733Z,13
2019-04-30T16:10:01.567Z,11
2019-04-30T16:15:01.463Z,13
2019-04-30T16:20:01.919Z,12
2019-04-30T16:25:02.317Z,11
2019-04-30T16:30:01.686Z,11
2019-04-30T16:35:02.063Z,10
2019-04-30T16:40:01.875Z,8
2019-04-30T16:45:02.228Z,9
2019-04-30T16:50:01.617Z,9
2019-04-30T16:55:02.000Z,10
2019-04-30T17:00:01.336Z,9
2019-04-30T17:05:01.997Z,10
2019-04-30T17:10:01.787Z,10
2019-04-30T17:15:01.453Z,7
2019-04-30T17:20:01.954Z,9
2019-04-30T17:25:02.344Z,8
2019-04-30T17:30:01.715Z,8
2019-04-30T17:35:02.073Z,8
2019-04-30T17:40:01.902Z,8
2019-04-30T17:45:02.249Z,8
2019-04-30T17:50:01.610Z,7
2019-04-30T17:55:01.953Z,8
2019-04-30T18:00:02.286Z,7
2019-04-30T18:05:01.925Z,7
2019-04-30T18:10:01.709Z,7
2019-04-30T18:15:02.307Z,7
2019-04-30T18:20:01.683Z,8
2019-04-30T18:25:02.036Z,7
2019-04-30T18:30:01.398Z,7
2019-04-30T18:35:01.747Z,7
2019-04-30T18:40:01.540Z,6
2019-04-30T18:45:01.884Z,7
2019-04-30T18:50:02.280Z,6
2019-04-30T18:55:01.636Z,8
2019-04-30T19:00:01.932Z,5
2019-04-30T19:05:01.558Z,7
2019-04-30T19:10:01.358Z,8
2019-04-30T19:15:01.333Z,8
2019-04-30T19:20:01.787Z,9
2019-04-30T19:25:04.481Z,7
2019-04-30T19:30:01.949Z,9
2019-04-30T19:35:02.337Z,10
2019-04-30T19:40:02.102Z,9
2019-04-30T19:45:09.472Z,9
2019-04-30T19:50:01.647Z,9
2019-04-30T19:55:02.140Z,9
2019-04-30T20:00:01.696Z,8
2019-04-30T20:05:01.414Z,10
2019-04-30T20:10:03.911Z,10
2019-04-30T20:15:01.280Z,8
2019-04-30T20:20:01.739Z,9
2019-04-30T20:25:02.085Z,8
2019-04-30T20:30:01.451Z,8
2019-04-30T20:35:01.837Z,8
2019-04-30T20:40:01.638Z,8
2019-04-30T20:45:03.906Z,10
2019-04-30T20:50:01.676Z,9
2019-04-30T20:55:02.048Z,10
2019-04-30T21:00:01.387Z,8
2019-04-30T21:05:01.971Z,9
2019-04-30T21:10:01.733Z,8
2019-04-30T21:15:02.084Z,11
2019-04-30T21:20:01.528Z,11
2019-04-30T21:25:01.888Z,9
2019-04-30T21:30:02.265Z,9
2019-04-30T21:35:01.661Z,9
2019-04-30T21:40:01.486Z,9
2019-04-30T21:45:01.884Z,9
2019-04-30T21:50:02.230Z,8
2019-04-30T21:55:01.578Z,9
2019-04-30T22:00:01.924Z,8
2019-04-30T22:05:01.599Z,9
2019-04-30T22:10:01.445Z,8
2019-04-30T22:15:02.010Z,10
2019-04-30T22:20:01.489Z,10
2019-04-30T22:25:01.865Z,10
2019-04-30T22:30:01.890Z,11
2019-04-30T22:35:02.273Z,8
2019-04-30T22:40:02.085Z,10
2019-04-30T22:45:01.436Z,9
2019-04-30T22:50:01.842Z,9
2019-04-30T22:55:02.218Z,9
2019-04-30T23:00:01.565Z,9
2019-04-30T23:05:02.227Z,10
2019-04-30T23:10:02.056Z,10
2019-04-30T23:15:01.447Z,10
2019-04-30T23:20:01.920Z,11
2019-04-30T23:25:02.257Z,8
2019-04-30T23:30:03.480Z,9
2019-04-30T23:35:02.212Z,10
2019-04-30T23:40:02.020Z,9
2019-04-30T23:45:01.366Z,9
2019-04-30T23:50:01.773Z,10
2019-04-30T23:55:02.120Z,8
